createdAt,value
2018-06-30T00:00:24.217Z,1.20
2018-06-30T00:02:52.347Z,1.07
2018-06-30T00:05:20.466Z,1.27
2018-06-30T00:07:48.571Z,1.20
2018-06-30T00:10:30.526Z,1.57
2018-06-30T00:12:59.861Z,1.20
2018-06-30T00:15:28.063Z,1.23
2018-06-30T00:17:56.414Z,1.07
2018-06-30T00:20:24.511Z,1.23
2018-06-30T00:22:53.071Z,1.27
2018-06-30T00:25:21.208Z,1.10
2018-06-30T00:27:49.420Z,1.40
2018-06-30T00:30:17.329Z,2.13
2018-06-30T00:32:45.546Z,1.80
2018-06-30T00:35:13.662Z,2.33
2018-06-30T00:37:41.883Z,2.30
2018-06-30T00:40:10.133Z,1.93
2018-06-30T00:42:38.324Z,2.10
2018-06-30T00:45:06.558Z,1.83
2018-06-30T00:47:34.645Z,2.77
2018-06-30T00:50:02.805Z,2.00
2018-06-30T00:52:31.095Z,1.93
2018-06-30T00:54:59.357Z,2.37
2018-06-30T00:57:27.510Z,1.70
2018-06-30T00:59:55.786Z,1.60
2018-06-30T01:02:24.247Z,1.70
2018-06-30T01:04:52.563Z,1.30
2018-06-30T01:07:20.743Z,1.57
2018-06-30T01:09:48.821Z,1.30
2018-06-30T01:12:16.964Z,1.20
2018-06-30T01:14:45.097Z,1.23
2018-06-30T01:17:13.273Z,1.33
2018-06-30T01:19:41.378Z,1.30
2018-06-30T01:22:09.521Z,1.80
2018-06-30T01:24:37.658Z,1.50
2018-06-30T01:27:05.822Z,1.57
2018-06-30T01:29:33.999Z,1.30
2018-06-30T01:32:01.909Z,1.30
2018-06-30T01:34:30.035Z,1.07
2018-06-30T01:36:58.216Z,0.77
2018-06-30T01:39:26.299Z,1.10
2018-06-30T01:41:54.456Z,1.07
2018-06-30T01:44:22.582Z,1.30
2018-06-30T01:46:50.808Z,1.13
2018-06-30T01:49:18.712Z,1.17
2018-06-30T01:51:46.855Z,1.30
2018-06-30T01:54:15.119Z,0.83
2018-06-30T01:56:43.393Z,1.03
2018-06-30T01:59:11.581Z,0.93
2018-06-30T02:01:39.750Z,0.90
2018-06-30T02:04:07.926Z,1.40
2018-06-30T02:06:36.359Z,0.90
2018-06-30T02:09:07.104Z,1.20
2018-06-30T02:11:35.245Z,1.00
2018-06-30T02:14:03.394Z,1.00
2018-06-30T02:16:31.545Z,1.20
2018-06-30T02:18:59.797Z,1.13
2018-06-30T02:21:28.073Z,1.50
2018-06-30T02:23:56.273Z,0.93
2018-06-30T02:26:24.493Z,1.20
2018-06-30T02:28:52.626Z,1.03
2018-06-30T02:31:20.771Z,1.20
2018-06-30T02:33:48.969Z,1.00
2018-06-30T02:36:17.231Z,1.13
2018-06-30T02:38:45.347Z,1.10
2018-06-30T02:41:13.520Z,0.80
2018-06-30T02:43:41.649Z,1.03
2018-06-30T02:46:09.748Z,1.00
2018-06-30T02:48:37.901Z,1.03
2018-06-30T02:51:06.108Z,1.00
2018-06-30T02:53:34.258Z,1.00
2018-06-30T02:56:02.386Z,1.20
2018-06-30T02:58:30.491Z,0.93
2018-06-30T03:00:58.646Z,1.10
2018-06-30T03:03:26.840Z,0.87
2018-06-30T03:05:54.924Z,1.00
2018-06-30T03:08:23.071Z,0.93
2018-06-30T03:10:51.201Z,1.17
2018-06-30T03:13:19.354Z,1.20
2018-06-30T03:15:47.647Z,1.00
2018-06-30T03:18:15.794Z,1.10
2018-06-30T03:20:44.028Z,1.23
2018-06-30T03:23:12.149Z,1.00
2018-06-30T03:25:40.311Z,1.00
2018-06-30T03:28:08.498Z,1.10
2018-06-30T03:30:36.646Z,1.00
2018-06-30T03:33:04.921Z,0.90
2018-06-30T03:35:33.755Z,1.20
2018-06-30T03:38:01.908Z,1.30
2018-06-30T03:40:30.162Z,0.97
2018-06-30T03:42:58.316Z,1.17
2018-06-30T03:45:26.423Z,1.10
2018-06-30T03:47:54.331Z,0.90
2018-06-30T03:50:22.440Z,1.00
2018-06-30T03:52:50.658Z,1.03
2018-06-30T03:55:18.758Z,0.90
2018-06-30T03:57:46.963Z,1.10
2018-06-30T04:00:15.206Z,1.10
2018-06-30T04:02:43.354Z,0.90
2018-06-30T04:05:11.483Z,1.00
2018-06-30T04:07:39.559Z,1.47
2018-06-30T04:10:07.846Z,1.30
2018-06-30T04:12:36.002Z,1.10
2018-06-30T04:15:04.432Z,1.27
2018-06-30T04:17:32.602Z,1.33
2018-06-30T04:20:00.850Z,1.30
2018-06-30T04:22:28.996Z,1.10
2018-06-30T04:24:57.241Z,1.30
2018-06-30T04:27:25.558Z,1.53
2018-06-30T04:29:53.667Z,1.20
2018-06-30T04:32:22.004Z,1.30
2018-06-30T04:34:50.223Z,1.10
2018-06-30T04:37:18.355Z,1.20
2018-06-30T04:39:46.518Z,1.13
2018-06-30T04:42:14.611Z,1.10
2018-06-30T04:44:42.795Z,1.27
2018-06-30T04:47:10.884Z,1.40
2018-06-30T04:49:39.015Z,1.23
2018-06-30T04:52:07.644Z,1.10
2018-06-30T04:54:35.751Z,1.10
2018-06-30T04:57:03.866Z,1.20
2018-06-30T04:59:31.973Z,1.00
2018-06-30T05:02:00.099Z,0.90
2018-06-30T05:04:28.215Z,1.00
2018-06-30T05:06:56.355Z,1.10
2018-06-30T05:09:24.487Z,1.03
2018-06-30T05:11:52.721Z,0.80
2018-06-30T05:14:20.795Z,0.90
2018-06-30T05:16:48.889Z,0.93
2018-06-30T05:19:16.990Z,1.07
2018-06-30T05:21:45.114Z,1.87
2018-06-30T05:24:13.211Z,1.20
2018-06-30T05:26:41.339Z,1.03
2018-06-30T05:29:09.444Z,0.70
2018-06-30T05:31:37.535Z,1.40
2018-06-30T05:34:05.814Z,0.90
2018-06-30T05:36:33.920Z,1.10
2018-06-30T05:39:02.017Z,1.10
2018-06-30T05:41:30.136Z,1.00
2018-06-30T05:43:58.215Z,0.90
2018-06-30T05:46:26.336Z,0.90
2018-06-30T05:48:54.446Z,1.13
2018-06-30T05:51:22.573Z,0.90
2018-06-30T05:53:50.679Z,1.10
2018-06-30T05:56:18.789Z,1.23
2018-06-30T05:58:46.899Z,1.20
2018-06-30T06:01:15.034Z,1.10
2018-06-30T06:03:43.162Z,1.00
2018-06-30T06:06:11.272Z,1.00
2018-06-30T06:08:39.356Z,0.83
2018-06-30T06:11:07.492Z,0.83
2018-06-30T06:13:35.666Z,0.70
2018-06-30T06:16:03.763Z,1.00
2018-06-30T06:18:31.870Z,0.90
2018-06-30T06:20:59.972Z,0.90
2018-06-30T06:23:28.078Z,0.80
2018-06-30T06:25:56.316Z,0.97
2018-06-30T06:28:24.442Z,1.77
2018-06-30T06:30:52.590Z,0.80
2018-06-30T06:33:20.715Z,1.10
2018-06-30T06:35:48.856Z,0.80
2018-06-30T06:38:16.975Z,2.03
2018-06-30T06:40:45.077Z,0.90
2018-06-30T06:43:13.216Z,1.00
2018-06-30T06:45:41.382Z,0.83
2018-06-30T06:48:09.273Z,0.90
2018-06-30T06:50:37.423Z,1.10
2018-06-30T06:53:06.406Z,0.90
2018-06-30T06:55:34.498Z,0.73
2018-06-30T06:58:02.618Z,0.80
2018-06-30T07:00:31.119Z,0.90
2018-06-30T07:02:59.318Z,0.90
2018-06-30T07:05:27.443Z,0.90
2018-06-30T07:07:55.582Z,0.93
2018-06-30T07:10:23.660Z,1.07
2018-06-30T07:12:51.815Z,0.87
2018-06-30T07:15:19.739Z,0.80
2018-06-30T07:17:47.855Z,0.70
2018-06-30T07:20:15.974Z,0.53
2018-06-30T07:22:44.278Z,0.90
2018-06-30T07:25:12.423Z,0.80
2018-06-30T07:27:40.525Z,0.80
2018-06-30T07:30:08.773Z,0.80
2018-06-30T07:32:36.857Z,0.90
2018-06-30T07:35:05.009Z,1.10
2018-06-30T07:37:33.207Z,0.80
2018-06-30T07:40:01.037Z,0.70
2018-06-30T07:42:29.211Z,0.80
2018-06-30T07:44:57.329Z,0.80
2018-06-30T07:47:25.445Z,1.03
2018-06-30T07:49:53.548Z,0.70
2018-06-30T07:52:21.818Z,0.90
2018-06-30T07:54:49.954Z,0.80
2018-06-30T07:57:18.112Z,0.80
2018-06-30T07:59:46.243Z,0.73
2018-06-30T08:02:14.410Z,1.00
2018-06-30T08:04:42.518Z,0.80
2018-06-30T08:07:10.613Z,0.80
2018-06-30T08:09:38.733Z,0.70
2018-06-30T08:12:06.862Z,0.90
2018-06-30T08:14:34.957Z,0.90
2018-06-30T08:17:03.426Z,0.80
2018-06-30T08:19:31.535Z,0.90
2018-06-30T08:21:59.724Z,1.00
2018-06-30T08:24:27.807Z,1.00
2018-06-30T08:26:55.889Z,0.90
2018-06-30T08:29:24.371Z,1.10
2018-06-30T08:31:52.463Z,0.70
2018-06-30T08:34:20.598Z,0.77
2018-06-30T08:36:48.788Z,0.93
2018-06-30T08:39:16.923Z,0.70
2018-06-30T08:41:45.048Z,0.90
2018-06-30T08:44:13.121Z,0.90
2018-06-30T08:46:41.216Z,0.90
2018-06-30T08:49:09.573Z,0.70
2018-06-30T08:51:37.774Z,0.87
2018-06-30T08:54:05.968Z,0.80
2018-06-30T08:56:34.066Z,0.73
2018-06-30T08:59:02.180Z,0.60
2018-06-30T09:01:30.320Z,1.03
2018-06-30T09:03:58.407Z,0.90
2018-06-30T09:06:26.569Z,0.90
2018-06-30T09:08:54.655Z,0.90
2018-06-30T09:11:22.746Z,0.97
2018-06-30T09:13:50.941Z,0.80
2018-06-30T09:16:19.203Z,0.90
2018-06-30T09:18:47.408Z,0.60
2018-06-30T09:21:15.487Z,0.77
2018-06-30T09:23:43.569Z,0.87
2018-06-30T09:26:11.651Z,0.77
2018-06-30T09:28:39.739Z,1.00
2018-06-30T09:31:07.835Z,0.80
2018-06-30T09:33:35.962Z,1.00
2018-06-30T09:36:04.070Z,0.90
2018-06-30T09:38:32.185Z,0.70
2018-06-30T09:41:00.669Z,0.73
2018-06-30T09:43:28.737Z,0.60
2018-06-30T09:45:56.866Z,0.70
2018-06-30T09:48:24.965Z,1.10
2018-06-30T09:50:53.136Z,0.90
2018-06-30T09:53:21.555Z,0.70
2018-06-30T09:55:49.668Z,0.80
2018-06-30T09:58:17.934Z,0.80
2018-06-30T10:00:55.276Z,0.93
2018-06-30T10:03:24.337Z,0.90
2018-06-30T10:05:52.562Z,0.83
2018-06-30T10:08:20.750Z,1.00
2018-06-30T10:10:48.958Z,1.00
2018-06-30T10:13:16.892Z,1.00
2018-06-30T10:15:48.133Z,1.03
2018-06-30T10:18:16.354Z,1.13
2018-06-30T10:20:46.689Z,0.80
2018-06-30T10:23:14.936Z,0.83
2018-06-30T10:25:43.541Z,0.80
2018-06-30T10:28:12.152Z,0.60
2018-06-30T10:30:41.066Z,0.97
2018-06-30T10:33:09.800Z,0.90
2018-06-30T10:35:38.080Z,1.00
2018-06-30T10:38:06.030Z,0.90
2018-06-30T10:40:34.411Z,0.80
2018-06-30T10:43:02.639Z,1.00
2018-06-30T10:45:30.969Z,1.00
2018-06-30T10:47:59.132Z,1.10
2018-06-30T10:50:27.306Z,1.20
2018-06-30T10:52:55.553Z,1.00
2018-06-30T10:55:23.702Z,0.80
2018-06-30T10:57:51.782Z,1.20
2018-06-30T11:00:19.941Z,1.93
2018-06-30T11:02:48.116Z,1.00
2018-06-30T11:05:16.273Z,0.97
2018-06-30T11:07:44.440Z,1.00
2018-06-30T11:10:12.602Z,1.10
2018-06-30T11:12:41.029Z,0.80
2018-06-30T11:15:09.247Z,1.30
2018-06-30T11:17:43.065Z,1.00
2018-06-30T11:20:11.266Z,1.30
2018-06-30T11:22:39.400Z,1.00
2018-06-30T11:25:08.415Z,1.17
2018-06-30T11:27:36.563Z,1.10
2018-06-30T11:30:05.250Z,0.80
2018-06-30T11:32:33.771Z,0.80
2018-06-30T11:35:02.785Z,1.00
2018-06-30T11:37:30.887Z,1.10
2018-06-30T11:39:59.117Z,1.27
2018-06-30T11:42:27.218Z,1.33
2018-06-30T11:44:55.426Z,1.40
2018-06-30T11:47:23.569Z,1.20
2018-06-30T11:49:51.708Z,1.20
2018-06-30T11:52:20.186Z,1.20
2018-06-30T11:54:48.318Z,1.10
2018-06-30T11:57:16.396Z,1.27
2018-06-30T11:59:44.529Z,1.30
2018-06-30T12:02:12.774Z,1.17
2018-06-30T12:04:40.886Z,1.07
2018-06-30T12:07:09.025Z,1.23
2018-06-30T12:09:37.161Z,1.20
2018-06-30T12:12:05.261Z,1.40
2018-06-30T12:14:33.493Z,1.30
2018-06-30T12:17:01.581Z,1.30
2018-06-30T12:19:29.655Z,1.40
2018-06-30T12:21:57.522Z,1.43
2018-06-30T12:24:25.637Z,1.17
2018-06-30T12:26:53.847Z,1.10
2018-06-30T12:29:21.961Z,1.10
2018-06-30T12:31:50.105Z,1.10
2018-06-30T12:34:18.238Z,0.90
2018-06-30T12:36:46.313Z,0.90
2018-06-30T12:39:14.451Z,0.80
2018-06-30T12:41:42.508Z,0.80
2018-06-30T12:44:10.569Z,0.70
2018-06-30T12:46:38.745Z,0.70
2018-06-30T12:49:06.889Z,0.80
2018-06-30T12:51:35.277Z,0.70
2018-06-30T12:54:03.389Z,0.77
2018-06-30T12:56:31.551Z,0.80
2018-06-30T12:58:59.542Z,0.90
2018-06-30T13:01:27.666Z,0.83
2018-06-30T13:03:55.818Z,0.80
2018-06-30T13:06:23.981Z,0.80
2018-06-30T13:08:52.084Z,0.87
2018-06-30T13:11:20.231Z,0.60
2018-06-30T13:13:48.349Z,0.90
2018-06-30T13:16:16.482Z,0.50
2018-06-30T13:18:44.575Z,0.80
2018-06-30T13:21:12.877Z,0.70
2018-06-30T13:23:41.047Z,0.83
2018-06-30T13:26:09.197Z,0.80
2018-06-30T13:28:37.320Z,0.70
2018-06-30T13:31:05.879Z,0.70
2018-06-30T13:33:33.946Z,0.50
2018-06-30T13:36:02.045Z,0.73
2018-06-30T13:38:30.010Z,0.80
2018-06-30T13:40:58.123Z,0.80
2018-06-30T13:43:26.269Z,0.60
2018-06-30T13:45:54.386Z,0.73
2018-06-30T13:48:22.505Z,0.70
2018-06-30T13:50:50.599Z,0.97
2018-06-30T13:53:18.723Z,0.70
2018-06-30T13:55:46.795Z,0.60
2018-06-30T13:58:14.936Z,1.00
2018-06-30T14:00:43.038Z,0.60
2018-06-30T14:03:11.110Z,0.90
2018-06-30T14:05:39.190Z,1.00
2018-06-30T14:08:07.303Z,0.70
2018-06-30T14:10:35.403Z,0.90
2018-06-30T14:13:03.563Z,0.70
2018-06-30T14:15:31.680Z,0.80
2018-06-30T14:17:59.912Z,0.70
2018-06-30T14:20:28.007Z,0.60
2018-06-30T14:22:56.183Z,0.70
2018-06-30T14:25:24.315Z,0.67
2018-06-30T14:27:52.559Z,0.73
2018-06-30T14:30:20.743Z,0.70
2018-06-30T14:32:48.955Z,1.00
2018-06-30T14:35:17.055Z,0.63
2018-06-30T14:37:45.238Z,1.00
2018-06-30T14:40:13.250Z,0.53
2018-06-30T14:42:41.342Z,0.90
2018-06-30T14:45:09.434Z,0.70
2018-06-30T14:47:37.560Z,0.73
2018-06-30T14:50:05.639Z,0.60
2018-06-30T14:52:33.746Z,0.90
2018-06-30T14:55:01.895Z,1.00
2018-06-30T14:57:29.961Z,0.70
2018-06-30T14:59:58.070Z,0.73
2018-06-30T15:02:26.169Z,0.80
2018-06-30T15:04:54.254Z,0.73
2018-06-30T15:07:22.428Z,1.00
2018-06-30T15:09:50.502Z,0.77
2018-06-30T15:12:18.565Z,0.70
2018-06-30T15:14:46.702Z,0.80
2018-06-30T15:17:14.819Z,0.70
2018-06-30T15:19:42.971Z,0.83
2018-06-30T15:22:11.101Z,1.00
2018-06-30T15:24:39.304Z,0.60
2018-06-30T15:27:07.407Z,0.90
2018-06-30T15:29:35.572Z,0.80
2018-06-30T15:32:03.582Z,1.00
2018-06-30T15:34:31.679Z,1.00
2018-06-30T15:36:59.802Z,1.07
2018-06-30T15:39:27.913Z,1.00
2018-06-30T15:41:55.998Z,1.20
2018-06-30T15:44:24.126Z,0.90
2018-06-30T15:46:52.231Z,0.83
2018-06-30T15:49:20.319Z,0.97
2018-06-30T15:51:48.505Z,0.90
2018-06-30T15:54:16.608Z,1.10
2018-06-30T15:56:44.749Z,0.97
2018-06-30T15:59:12.983Z,1.17
2018-06-30T16:01:41.070Z,1.30
2018-06-30T16:04:09.211Z,1.20
2018-06-30T16:06:37.373Z,1.23
2018-06-30T16:09:06.917Z,1.20
2018-06-30T16:11:35.009Z,1.10
2018-06-30T16:14:03.706Z,1.30
2018-06-30T16:19:06.523Z,1.50
2018-06-30T16:21:34.926Z,1.50
2018-06-30T16:24:03.076Z,1.60
2018-06-30T16:26:31.467Z,1.00
2018-06-30T16:28:59.718Z,2.23
2018-06-30T16:31:27.868Z,1.90
2018-06-30T16:33:55.936Z,1.77
2018-06-30T16:36:24.267Z,1.13
2018-06-30T16:38:52.629Z,1.70
2018-06-30T16:41:20.908Z,1.73
2018-06-30T16:43:49.300Z,1.10
2018-06-30T16:46:17.316Z,0.80
2018-06-30T16:48:45.267Z,0.80
2018-06-30T16:51:13.404Z,1.30
2018-06-30T16:53:41.673Z,0.70
2018-06-30T16:56:09.911Z,1.00
2018-06-30T16:58:38.083Z,1.07
2018-06-30T17:01:06.255Z,1.70
2018-06-30T17:03:34.347Z,1.93
2018-06-30T17:06:02.524Z,1.60
2018-06-30T17:08:30.664Z,1.10
2018-06-30T17:10:58.799Z,1.10
2018-06-30T17:13:26.901Z,1.20
2018-06-30T17:15:55.118Z,1.27
2018-06-30T17:18:23.209Z,1.53
2018-06-30T17:20:51.335Z,1.30
2018-06-30T17:23:19.413Z,1.57
2018-06-30T17:25:47.618Z,5.33
2018-06-30T17:28:15.737Z,2.80
2018-06-30T17:30:43.901Z,1.90
2018-06-30T17:33:12.873Z,1.40
2018-06-30T17:35:41.051Z,1.13
2018-06-30T17:38:09.158Z,1.60
2018-06-30T17:40:37.321Z,1.00
2018-06-30T17:43:05.918Z,1.23
2018-06-30T17:45:34.097Z,1.50
2018-06-30T17:48:02.325Z,1.50
2018-06-30T17:50:30.606Z,1.53
2018-06-30T17:52:58.713Z,1.70
2018-06-30T17:55:26.885Z,1.30
2018-06-30T17:57:55.019Z,1.77
2018-06-30T18:00:23.171Z,1.90
2018-06-30T18:02:51.353Z,1.20
2018-06-30T18:05:19.461Z,1.50
2018-06-30T18:07:47.604Z,1.40
2018-06-30T18:10:15.567Z,1.40
2018-06-30T18:12:43.656Z,2.30
2018-06-30T18:15:11.787Z,2.67
2018-06-30T18:17:39.894Z,1.57
2018-06-30T18:20:07.988Z,1.60
2018-06-30T18:22:36.087Z,1.40
2018-06-30T18:25:04.206Z,1.30
2018-06-30T18:27:32.307Z,1.50
2018-06-30T18:30:00.457Z,1.33
2018-06-30T18:32:28.596Z,1.50
2018-06-30T18:34:56.673Z,1.30
2018-06-30T18:37:24.772Z,1.00
2018-06-30T18:39:52.891Z,1.23
2018-06-30T18:42:21.002Z,1.50
2018-06-30T18:44:49.257Z,1.37
2018-06-30T18:47:17.655Z,1.30
2018-06-30T18:49:45.759Z,1.00
2018-06-30T18:52:14.059Z,1.40
2018-06-30T18:54:42.224Z,1.30
2018-06-30T18:57:10.327Z,1.37
2018-06-30T18:59:38.462Z,1.37
2018-06-30T19:02:06.730Z,1.37
2018-06-30T19:04:34.811Z,1.63
2018-06-30T19:07:02.932Z,1.47
2018-06-30T19:09:31.048Z,1.57
2018-06-30T19:11:59.143Z,1.60
2018-06-30T19:14:27.281Z,1.37
2018-06-30T19:16:55.675Z,1.30
2018-06-30T19:19:23.846Z,1.80
2018-06-30T19:21:52.075Z,1.53
2018-06-30T19:24:20.154Z,1.40
2018-06-30T19:26:48.282Z,1.20
2018-06-30T19:29:16.410Z,1.30
2018-06-30T19:31:44.627Z,1.53
2018-06-30T19:34:12.766Z,1.20
2018-06-30T19:36:41.048Z,1.63
2018-06-30T19:39:10.503Z,1.50
2018-06-30T19:41:38.639Z,2.10
2018-06-30T19:44:06.797Z,1.50
2018-06-30T19:46:34.907Z,1.20
2018-06-30T19:49:03.070Z,1.57
2018-06-30T19:51:31.191Z,1.40
2018-06-30T19:53:59.300Z,1.50
2018-06-30T19:56:27.678Z,2.17
2018-06-30T19:58:55.848Z,1.70
2018-06-30T20:01:24.054Z,1.87
2018-06-30T20:03:52.195Z,2.20
2018-06-30T20:06:20.448Z,2.23
2018-06-30T20:08:48.590Z,2.10
2018-06-30T20:11:16.737Z,2.50
2018-06-30T20:13:44.911Z,2.57
2018-06-30T20:16:13.014Z,3.00
2018-06-30T20:18:41.357Z,4.00
2018-06-30T20:21:09.463Z,3.60
2018-06-30T20:23:37.590Z,2.90
2018-06-30T20:26:06.069Z,3.07
2018-06-30T20:28:34.446Z,2.60
2018-06-30T20:31:02.600Z,2.20
2018-06-30T20:33:30.707Z,2.50
2018-06-30T20:35:58.839Z,2.30
2018-06-30T20:38:26.944Z,2.10
2018-06-30T20:40:55.083Z,2.23
2018-06-30T20:43:23.179Z,2.20
2018-06-30T20:45:51.280Z,2.10
2018-06-30T20:48:19.352Z,2.37
2018-06-30T20:50:47.567Z,2.60
2018-06-30T20:53:15.687Z,2.50
2018-06-30T20:55:43.851Z,2.20
2018-06-30T20:58:12.034Z,2.67
2018-06-30T21:00:40.181Z,2.60
2018-06-30T21:03:10.479Z,2.90
2018-06-30T21:05:38.591Z,3.07
2018-06-30T21:08:06.892Z,3.57
2018-06-30T21:10:35.039Z,3.00
2018-06-30T21:13:03.126Z,2.60
2018-06-30T21:15:33.297Z,2.73
2018-06-30T21:18:01.426Z,2.67
2018-06-30T21:20:29.583Z,2.20
2018-06-30T21:22:57.664Z,2.60
2018-06-30T21:25:25.789Z,2.60
2018-06-30T21:27:53.896Z,2.70
2018-06-30T21:30:22.073Z,2.87
2018-06-30T21:32:50.230Z,2.40
2018-06-30T21:35:18.460Z,2.50
2018-06-30T21:37:46.550Z,2.90
2018-06-30T21:40:14.713Z,3.00
2018-06-30T21:42:42.835Z,2.73
2018-06-30T21:45:11.007Z,3.03
2018-06-30T21:47:39.120Z,3.57
2018-06-30T21:50:07.193Z,3.03
2018-06-30T21:52:35.344Z,2.80
2018-06-30T21:55:03.496Z,3.13
2018-06-30T21:57:31.593Z,3.03
2018-06-30T21:59:59.719Z,3.73
2018-06-30T22:02:27.829Z,3.33
2018-06-30T22:04:55.902Z,3.10
2018-06-30T22:07:24.004Z,2.53
2018-06-30T22:09:51.943Z,2.40
2018-06-30T22:12:20.102Z,2.20
2018-06-30T22:14:48.209Z,2.83
2018-06-30T22:17:16.316Z,2.10
2018-06-30T22:19:44.502Z,2.40
2018-06-30T22:22:12.624Z,2.03
2018-06-30T22:24:40.772Z,2.00
2018-06-30T22:27:08.943Z,1.70
2018-06-30T22:29:37.022Z,1.80
2018-06-30T22:32:05.187Z,1.80
2018-06-30T22:34:33.331Z,1.70
2018-06-30T22:37:01.445Z,1.97
2018-06-30T22:39:41.159Z,1.60
2018-06-30T22:42:09.250Z,1.70
2018-06-30T22:44:37.340Z,1.40
2018-06-30T22:47:05.533Z,1.50
2018-06-30T22:49:33.590Z,1.50
2018-06-30T22:52:01.750Z,1.43
2018-06-30T22:54:29.821Z,1.70
2018-06-30T22:56:57.952Z,1.63
2018-06-30T22:59:26.064Z,1.40
2018-06-30T23:01:54.156Z,1.53
2018-06-30T23:04:22.255Z,1.30
2018-06-30T23:06:50.304Z,1.50
2018-06-30T23:09:18.432Z,1.40
2018-06-30T23:11:46.542Z,1.83
2018-06-30T23:14:14.710Z,1.40
2018-06-30T23:16:42.880Z,2.00
2018-06-30T23:19:10.935Z,1.90
2018-06-30T23:21:39.013Z,1.50
2018-06-30T23:24:07.130Z,1.53
2018-06-30T23:26:35.234Z,1.50
2018-06-30T23:29:03.326Z,1.60
2018-06-30T23:31:31.418Z,1.67
2018-06-30T23:33:59.547Z,1.50
2018-06-30T23:36:27.644Z,1.60
2018-06-30T23:38:55.526Z,1.63
2018-06-30T23:41:23.606Z,1.70
2018-06-30T23:43:51.722Z,1.77
2018-06-30T23:46:19.846Z,1.57
2018-06-30T23:48:47.938Z,1.40
2018-06-30T23:51:16.399Z,1.60
2018-06-30T23:53:44.499Z,1.50
2018-06-30T23:56:12.600Z,1.40
2018-06-30T23:58:40.711Z,1.30
